Rowley, MA (01969)

1:37 PM EST on December 04, 2016 (GMT -0500)
Clark School | | Change Station

Elev 79 ft 42.70 °N, 70.92 °W | Updated 6 seconds ago

Clear
Clear
41.5 °F
Feels Like 38 °F
N
5.8
Wind Variable Wind from NW
Gusts 9.8 mph

Today
High -- | Low -- °F
--% Chance of Precip.
Yesterday
High -- | Low -- °F
Precip. -- in
Pressure 30.14 in
Visibility 10.0 miles
Clouds Clear
Windchill 38 °F
Dew Point 6 °F
Humidity 22%
Rainfall 0.00 in
Snow Depth Not available.
6:57 AM 4:09 PM
Waxing Crescent, 24% visible
METAR KBVY 041753Z 31007KT 10SM CLR 05/M07 A3014 RMK AO2 SLP205 T00501067 10050 21017 56012
Pressure 30.14 in
Visibility 10.0 miles
Clouds Clear
Windchill 38 °F
Dew Point 6 °F
Humidity 22%
Rainfall 0.00 in
Snow Depth Not available.
6:57 AM 4:09 PM
Waxing Crescent, 24% visible
METAR KBVY 041753Z 31007KT 10SM CLR 05/M07 A3014 RMK AO2 SLP205 T00501067 10050 21017 56012

10-Day Weather Forecast

Almanac

Astronomy

Dec. 04, 2016 Rise Set
Actual Time
Civil Twilight
Nautical Twilight
Astronomical Twilight
Moon
Length of Visible Light
Length of Day
Tomorrow will be .
, % of the Moon is Illuminated

Today's Extremes

State Highs State Lows

Community

WunderPhotos

Upload Photos

1,955,640 photos uploaded!

WunderBlog® & News

Nearby

Air Quality

  Air Quality AQ Index Pollutant
Not available.

Snow Depth

Station Depth Elevation

Earthquake Activity

City Distance Mag. Time & Date
Minimum magnitude displayed is 2.5.

Coastal Water Temperatures

Place Temperature

Stations

Nearby Weather Stations

Station Location Temp. Windchill Dew Point Humidity Wind Precip. Elev Updated Type
                   

Watches & Warnings

There are currently no watches in effect.